createdAt,value
2022-12-13T00:01:21.933Z,-4.20
2022-12-13T00:03:49.643Z,-4.19
2022-12-13T00:06:18.607Z,-4.19
2022-12-13T00:08:46.269Z,-4.22
2022-12-13T00:11:15.206Z,-4.22
2022-12-13T00:13:44.051Z,-4.19
2022-12-13T00:16:13.746Z,-4.15
2022-12-13T00:18:41.472Z,-4.11
2022-12-13T00:21:10.903Z,-4.05
2022-12-13T00:23:39.905Z,-4.04
2022-12-13T00:26:10.890Z,-3.99
2022-12-13T00:28:38.621Z,-3.96
2022-12-13T00:31:34.265Z,-3.93
2022-12-13T00:33:54.744Z,-3.87
2022-12-13T00:36:22.533Z,-3.82
2022-12-13T00:39:00.506Z,-3.76
2022-12-13T00:41:30.827Z,-3.71
2022-12-13T00:43:58.651Z,-3.66
2022-12-13T00:46:26.764Z,-3.62
2022-12-13T00:48:56.949Z,-3.61
2022-12-13T00:51:25.482Z,-3.60
2022-12-13T00:53:56.110Z,-3.58
2022-12-13T00:56:26.423Z,-3.54
2022-12-13T00:58:55.240Z,-3.52
2022-12-13T01:01:25.240Z,-3.52
2022-12-13T01:03:54.707Z,-3.51
2022-12-13T01:06:27.286Z,-3.49
2022-12-13T01:08:56.304Z,-3.51
2022-12-13T01:11:24.018Z,-3.48
2022-12-13T01:13:51.639Z,-3.45
2022-12-13T01:16:19.652Z,-3.41
2022-12-13T01:18:48.259Z,-3.40
2022-12-13T01:21:17.755Z,-3.36
2022-12-13T01:23:46.314Z,-3.34
2022-12-13T01:26:17.916Z,-3.31
2022-12-13T01:28:45.587Z,-3.27
2022-12-13T01:31:16.085Z,-3.27
2022-12-13T01:33:44.157Z,-3.25
2022-12-13T01:36:15.908Z,-3.24
2022-12-13T01:38:43.599Z,-3.24
2022-12-13T01:41:17.475Z,-3.24
2022-12-13T01:43:56.822Z,-3.23
2022-12-13T01:46:24.548Z,-3.25
2022-12-13T01:48:59.159Z,-3.26
2022-12-13T01:51:30.690Z,-3.28
2022-12-13T01:54:02.486Z,-3.29
2022-12-13T01:56:34.775Z,-3.29
2022-12-13T01:59:05.924Z,-3.27
2022-12-13T02:01:34.142Z,-3.25
2022-12-13T02:04:01.788Z,-3.25
2022-12-13T02:06:34.833Z,-3.23
2022-12-13T02:09:04.047Z,-3.24
2022-12-13T02:11:31.900Z,-3.23
2022-12-13T02:13:59.498Z,-3.22
2022-12-13T02:16:42.831Z,-3.23
2022-12-13T02:19:39.135Z,-3.22
2022-12-13T02:22:23.442Z,-3.23
2022-12-13T02:25:05.613Z,-3.24
2022-12-13T02:27:51.317Z,-3.24
2022-12-13T02:30:35.684Z,-3.23
2022-12-13T02:33:22.132Z,-3.20
2022-12-13T02:35:56.546Z,-3.19
2022-12-13T02:38:30.685Z,-3.18
2022-12-13T02:41:06.320Z,-3.17
2022-12-13T02:43:39.000Z,-3.17
2022-12-13T02:46:18.076Z,-3.18
2022-12-13T02:48:48.087Z,-3.20
2022-12-13T02:51:17.471Z,-3.20
2022-12-13T02:53:46.319Z,-3.21
2022-12-13T02:56:13.991Z,-3.25
2022-12-13T02:58:44.359Z,-3.29
2022-12-13T03:01:29.457Z,-3.32
2022-12-13T03:04:08.516Z,-3.38
2022-12-13T03:06:44.650Z,-3.43
2022-12-13T03:09:25.458Z,-3.50
2022-12-13T03:12:28.320Z,-3.57
2022-12-13T03:15:00.868Z,-3.65
2022-12-13T03:17:37.222Z,-3.73
2022-12-13T03:20:22.568Z,-3.81
2022-12-13T03:22:51.053Z,-3.87
2022-12-13T03:25:31.318Z,-3.96
2022-12-13T03:28:02.496Z,-4.04
2022-12-13T03:30:31.418Z,-4.14
2022-12-13T03:33:00.811Z,-4.21
2022-12-13T03:35:34.858Z,-4.30
2022-12-13T03:38:12.512Z,-4.39
2022-12-13T03:40:51.225Z,-4.47
2022-12-13T03:43:22.280Z,-4.55
2022-12-13T03:45:51.193Z,-4.62
2022-12-13T03:48:21.652Z,-4.69
2022-12-13T03:50:50.844Z,-4.77
2022-12-13T03:53:22.389Z,-4.81
2022-12-13T03:56:01.493Z,-4.88
2022-12-13T03:58:34.673Z,-4.95
2022-12-13T04:01:05.039Z,-5.02
2022-12-13T04:03:34.046Z,-5.09
2022-12-13T04:06:01.644Z,-5.13
2022-12-13T04:08:29.302Z,-5.19
2022-12-13T04:10:56.979Z,-5.24
2022-12-13T04:13:35.439Z,-5.29
2022-12-13T04:16:03.896Z,-5.35
2022-12-13T04:18:31.524Z,-5.38
2022-12-13T04:21:00.489Z,-5.43
2022-12-13T04:23:28.075Z,-5.46
2022-12-13T04:25:55.673Z,-5.46
2022-12-13T04:28:23.406Z,-5.46
2022-12-13T04:30:53.616Z,-5.47
2022-12-13T04:33:21.777Z,-5.46
2022-12-13T04:35:49.680Z,-5.45
2022-12-13T04:38:18.809Z,-5.44
2022-12-13T04:40:46.440Z,-5.43
2022-12-13T04:43:14.152Z,-5.39
2022-12-13T04:45:41.962Z,-5.31
2022-12-13T04:48:09.752Z,-5.24
2022-12-13T04:50:37.938Z,-5.17
2022-12-13T04:53:05.660Z,-5.10
2022-12-13T04:55:34.615Z,-5.05
2022-12-13T04:58:02.269Z,-4.99
2022-12-13T05:00:29.887Z,-4.95
2022-12-13T05:02:57.539Z,-4.90
2022-12-13T05:05:25.180Z,-4.86
2022-12-13T05:07:52.817Z,-4.80
2022-12-13T05:10:35.849Z,-4.72
2022-12-13T05:13:07.637Z,-4.66
2022-12-13T05:15:35.951Z,-4.58
2022-12-13T05:18:10.533Z,-4.53
2022-12-13T05:20:39.098Z,-4.45
2022-12-13T05:23:07.011Z,-4.41
2022-12-13T05:25:35.082Z,-4.34
2022-12-13T05:28:08.833Z,-4.31
2022-12-13T05:30:51.611Z,-4.29
2022-12-13T05:33:19.352Z,-4.25
2022-12-13T05:35:47.272Z,-4.27
2022-12-13T05:38:15.054Z,-4.24
2022-12-13T05:40:42.844Z,-4.21
2022-12-13T05:43:22.068Z,-4.17
2022-12-13T05:45:51.979Z,-4.10
2022-12-13T05:48:24.530Z,-4.08
2022-12-13T05:51:10.503Z,-4.05
2022-12-13T05:53:39.572Z,-4.03
2022-12-13T05:56:07.982Z,-4.01
2022-12-13T05:58:36.372Z,-4.02
2022-12-13T06:01:10.471Z,-4.00
2022-12-13T06:03:38.750Z,-3.99
2022-12-13T06:06:08.571Z,-3.98
2022-12-13T06:08:36.857Z,-3.99
2022-12-13T06:11:11.045Z,-4.00
2022-12-13T06:13:42.813Z,-4.05
2022-12-13T06:16:23.831Z,-4.06
2022-12-13T06:19:01.014Z,-4.07
2022-12-13T06:21:40.820Z,-4.07
2022-12-13T06:24:14.317Z,-4.09
2022-12-13T06:26:41.910Z,-4.09
2022-12-13T06:29:10.365Z,-4.10
2022-12-13T06:31:39.444Z,-4.15
2022-12-13T06:34:14.617Z,-4.20
2022-12-13T06:36:42.672Z,-4.24
2022-12-13T06:39:10.322Z,-4.25
2022-12-13T06:41:37.990Z,-4.29
2022-12-13T06:44:06.226Z,-4.33
2022-12-13T06:46:34.028Z,-4.37
2022-12-13T06:49:02.988Z,-4.44
2022-12-13T06:51:32.943Z,-4.51
2022-12-13T06:54:01.460Z,-4.57
2022-12-13T06:56:30.205Z,-4.65
2022-12-13T06:59:01.498Z,-4.74
2022-12-13T07:01:37.266Z,-4.78
2022-12-13T07:04:30.356Z,-4.82
2022-12-13T07:06:56.678Z,-4.82
2022-12-13T07:09:30.503Z,-4.78
2022-12-13T07:11:58.164Z,-4.72
2022-12-13T07:14:26.065Z,-4.70
2022-12-13T07:16:59.451Z,-4.65
2022-12-13T07:19:35.570Z,-4.59
2022-12-13T07:22:06.160Z,-4.49
2022-12-13T07:24:34.943Z,-4.39
2022-12-13T07:27:03.088Z,-4.29
2022-12-13T07:29:30.727Z,-4.22
2022-12-13T07:32:01.299Z,-4.14
2022-12-13T07:34:29.782Z,-4.07
2022-12-13T07:36:58.860Z,-3.99
2022-12-13T07:39:27.019Z,-3.92
2022-12-13T07:41:55.894Z,-3.84
2022-12-13T07:44:23.559Z,-3.74
2022-12-13T07:46:51.209Z,-3.67
2022-12-13T07:49:18.933Z,-3.59
2022-12-13T07:51:46.606Z,-3.54
2022-12-13T07:54:17.606Z,-3.48
2022-12-13T07:56:45.887Z,-3.39
2022-12-13T07:59:13.967Z,-3.29
2022-12-13T08:01:41.760Z,-3.21
2022-12-13T08:04:09.455Z,-3.14
2022-12-13T08:06:37.835Z,-3.06
2022-12-13T08:09:06.160Z,-2.99
2022-12-13T08:11:35.431Z,-2.90
2022-12-13T08:14:03.051Z,-2.84
2022-12-13T08:16:31.952Z,-2.74
2022-12-13T08:19:04.328Z,-2.69
2022-12-13T08:24:24.932Z,-2.62
2022-12-13T08:26:53.887Z,-2.56
2022-12-13T08:29:23.461Z,-2.49
2022-12-13T08:32:01.955Z,-2.41
2022-12-13T08:34:29.930Z,-2.34
2022-12-13T08:37:01.626Z,-2.28
2022-12-13T08:39:34.654Z,-2.20
2022-12-13T08:42:14.836Z,-2.15
2022-12-13T08:44:46.210Z,-2.06
2022-12-13T08:47:24.578Z,-2.00
2022-12-13T08:49:54.926Z,-1.97
2022-12-13T08:52:23.688Z,-1.92
2022-12-13T08:54:51.812Z,-1.86
2022-12-13T08:57:20.790Z,-1.78
2022-12-13T08:59:48.398Z,-1.75
2022-12-13T09:02:16.820Z,-1.70
2022-12-13T09:04:44.789Z,-1.64
2022-12-13T09:07:12.415Z,-1.60
2022-12-13T09:09:40.038Z,-1.59
2022-12-13T09:12:11.048Z,-1.56
2022-12-13T09:15:00.867Z,-1.54
2022-12-13T09:17:37.217Z,-1.48
2022-12-13T09:20:10.150Z,-1.43
2022-12-13T09:23:01.689Z,-1.39
2022-12-13T09:25:36.491Z,-1.36
2022-12-13T09:28:05.680Z,-1.31
2022-12-13T09:30:34.724Z,-1.33
2022-12-13T09:33:17.982Z,-1.33
2022-12-13T09:35:49.976Z,-1.34
2022-12-13T09:38:17.739Z,-1.39
2022-12-13T09:40:48.283Z,-1.37
2022-12-13T09:43:31.625Z,-1.35
2022-12-13T09:46:22.106Z,-1.35
2022-12-13T09:48:53.159Z,-1.39
2022-12-13T09:51:43.878Z,-1.37
2022-12-13T09:54:19.536Z,-1.39
2022-12-13T09:56:51.067Z,-1.34
2022-12-13T09:59:20.179Z,-1.27
2022-12-13T10:01:49.395Z,-1.20
2022-12-13T10:04:17.585Z,-1.16
2022-12-13T10:06:45.442Z,-1.11
2022-12-13T10:09:15.120Z,-1.01
2022-12-13T10:11:50.765Z,-0.93
2022-12-13T10:14:24.567Z,-0.90
2022-12-13T10:16:57.793Z,-0.89
2022-12-13T10:19:30.462Z,-0.83
2022-12-13T10:22:01.316Z,-0.76
2022-12-13T10:24:36.963Z,-0.77
2022-12-13T10:27:13.550Z,-0.76
2022-12-13T10:30:07.588Z,-0.68
2022-12-13T10:32:46.672Z,-0.66
2022-12-13T10:35:26.159Z,-0.65
2022-12-13T10:37:54.598Z,-0.65
2022-12-13T10:40:33.628Z,-0.63
2022-12-13T10:43:08.959Z,-0.57
2022-12-13T10:45:36.634Z,-0.59
2022-12-13T10:48:06.207Z,-0.59
2022-12-13T10:50:34.017Z,-0.53
2022-12-13T10:53:02.147Z,-0.45
2022-12-13T10:55:33.043Z,-0.51
2022-12-13T10:58:03.006Z,-0.56
2022-12-13T11:00:35.047Z,-0.57
2022-12-13T11:03:02.839Z,-0.58
2022-12-13T11:05:34.184Z,-0.52
2022-12-13T11:08:16.749Z,-0.52
2022-12-13T11:10:44.567Z,-0.50
2022-12-13T11:13:26.205Z,-0.43
2022-12-13T11:15:56.847Z,-0.41
2022-12-13T11:18:27.488Z,-0.35
2022-12-13T11:20:59.787Z,-0.32
2022-12-13T11:23:31.079Z,-0.27
2022-12-13T11:26:06.190Z,-0.30
2022-12-13T11:28:49.524Z,-0.29
2022-12-13T11:31:26.890Z,-0.32
2022-12-13T11:34:05.291Z,-0.31
2022-12-13T11:36:42.785Z,-0.32
2022-12-13T11:39:18.586Z,-0.24
2022-12-13T11:41:55.362Z,-0.18
2022-12-13T11:44:30.730Z,-0.18
2022-12-13T11:47:00.998Z,-0.18
2022-12-13T11:49:39.215Z,-0.22
2022-12-13T11:52:15.275Z,-0.18
2022-12-13T11:54:53.717Z,-0.13
2022-12-13T11:57:34.363Z,-0.22
2022-12-13T12:00:12.881Z,-0.24
2022-12-13T12:02:45.588Z,-0.21
2022-12-13T12:05:28.290Z,-0.18
2022-12-13T12:10:52.351Z,-0.18
2022-12-13T12:13:24.585Z,-0.18
2022-12-13T12:16:02.916Z,-0.16
2022-12-13T12:18:30.866Z,-0.22
2022-12-13T12:21:09.168Z,-0.19
2022-12-13T12:23:53.513Z,-0.24
2022-12-13T12:26:30.325Z,-0.26
2022-12-13T12:29:12.443Z,-0.27
2022-12-13T12:31:50.696Z,-0.36
2022-12-13T12:34:30.151Z,-0.39
2022-12-13T12:37:07.291Z,-0.39
2022-12-13T12:39:45.255Z,-0.39
2022-12-13T12:42:27.603Z,-0.43
2022-12-13T12:45:17.445Z,-0.42
2022-12-13T12:50:54.732Z,-0.45
2022-12-13T12:53:35.073Z,-0.43
2022-12-13T12:56:19.598Z,-0.44
2022-12-13T12:58:54.132Z,-0.41
2022-12-13T13:01:43.519Z,-0.43
2022-12-13T13:04:14.038Z,-0.39
2022-12-13T13:06:54.703Z,-0.34
2022-12-13T13:09:31.093Z,-0.34
2022-12-13T13:12:29.558Z,-0.30
2022-12-13T13:14:52.620Z,-0.28
2022-12-13T13:17:47.730Z,-0.29
2022-12-13T13:20:23.201Z,-0.23
2022-12-13T13:23:10.497Z,-0.16
2022-12-13T13:26:00.245Z,-0.18
2022-12-13T13:28:29.051Z,-0.22
2022-12-13T13:31:05.305Z,-0.27
2022-12-13T13:33:46.524Z,-0.31
2022-12-13T13:36:47.574Z,-0.33
2022-12-13T13:39:19.199Z,-0.30
2022-12-13T13:42:09.037Z,-0.28
2022-12-13T13:44:56.944Z,-0.26
2022-12-13T13:47:38.894Z,-0.33
2022-12-13T13:50:57.637Z,-0.30
2022-12-13T13:54:00.599Z,-0.39
2022-12-13T13:57:03.219Z,-0.36
2022-12-13T14:00:12.004Z,-0.34
2022-12-13T14:03:12.649Z,-0.37
2022-12-13T14:06:31.952Z,-0.38
2022-12-13T14:09:21.620Z,-0.36
2022-12-13T14:12:21.096Z,-0.35
2022-12-13T14:15:32.920Z,-0.33
2022-12-13T14:18:53.475Z,-0.34
2022-12-13T14:21:29.724Z,-0.32
2022-12-13T14:24:07.448Z,-0.31
2022-12-13T14:26:46.462Z,-0.28
2022-12-13T14:29:25.114Z,-0.29
2022-12-13T14:31:54.371Z,-0.31
2022-12-13T14:34:24.971Z,-0.35
2022-12-13T14:36:58.459Z,-0.35
2022-12-13T14:39:29.351Z,-0.39
2022-12-13T14:41:59.380Z,-0.40
2022-12-13T14:44:29.230Z,-0.41
2022-12-13T14:47:01.135Z,-0.43
2022-12-13T14:49:31.986Z,-0.42
2022-12-13T14:52:03.904Z,-0.43
2022-12-13T14:54:41.119Z,-0.46
2022-12-13T14:57:16.844Z,-0.49
2022-12-13T14:59:50.139Z,-0.48
2022-12-13T15:02:30.796Z,-0.47
2022-12-13T15:05:00.780Z,-0.46
2022-12-13T15:07:32.386Z,-0.48
2022-12-13T15:10:02.906Z,-0.48
2022-12-13T15:12:32.126Z,-0.46
2022-12-13T15:15:02.431Z,-0.49
2022-12-13T15:17:34.970Z,-0.50
2022-12-13T15:20:03.600Z,-0.51
2022-12-13T15:22:31.227Z,-0.56
2022-12-13T15:24:59.296Z,-0.58
2022-12-13T15:27:27.899Z,-0.60
2022-12-13T15:29:56.117Z,-0.60
2022-12-13T15:32:24.380Z,-0.60
2022-12-13T15:34:53.479Z,-0.62
2022-12-13T15:37:29.123Z,-0.64
2022-12-13T15:40:01.816Z,-0.64
2022-12-13T15:42:34.303Z,-0.64
2022-12-13T15:45:06.143Z,-0.63
2022-12-13T15:47:34.251Z,-0.69
2022-12-13T15:50:05.999Z,-0.68
2022-12-13T15:52:35.802Z,-0.68
2022-12-13T15:55:28.411Z,-0.72
2022-12-13T15:57:58.633Z,-0.77
2022-12-13T16:00:30.375Z,-0.78
2022-12-13T16:03:09.695Z,-0.79
2022-12-13T16:05:39.971Z,-0.81
2022-12-13T16:08:20.925Z,-0.83
2022-12-13T16:10:53.118Z,-0.86
2022-12-13T16:13:26.706Z,-0.87
2022-12-13T16:16:00.344Z,-0.90
2022-12-13T16:18:45.803Z,-0.94
2022-12-13T16:21:14.229Z,-0.96
2022-12-13T16:23:48.088Z,-0.99
2022-12-13T16:26:23.445Z,-1.03
2022-12-13T16:28:51.034Z,-1.08
2022-12-13T16:31:20.977Z,-1.11
2022-12-13T16:33:49.106Z,-1.12
2022-12-13T16:36:16.937Z,-1.12
2022-12-13T16:38:44.591Z,-1.12
2022-12-13T16:41:14.675Z,-1.16
2022-12-13T16:43:51.812Z,-1.17
2022-12-13T16:47:12.819Z,-1.21
2022-12-13T16:49:19.196Z,-1.23
2022-12-13T16:51:48.847Z,-1.29
2022-12-13T16:54:17.271Z,-1.33
2022-12-13T16:56:44.915Z,-1.34
2022-12-13T16:59:15.835Z,-1.39
2022-12-13T17:01:44.168Z,-1.44
2022-12-13T17:04:19.224Z,-1.45
2022-12-13T17:06:48.801Z,-1.56
2022-12-13T17:09:16.718Z,-1.60
2022-12-13T17:11:44.402Z,-1.67
2022-12-13T17:14:12.055Z,-1.71
2022-12-13T17:16:41.048Z,-1.76
2022-12-13T17:19:10.643Z,-1.81
2022-12-13T17:21:38.289Z,-1.85
2022-12-13T17:24:06.317Z,-1.90
2022-12-13T17:26:35.108Z,-1.90
2022-12-13T17:29:03.032Z,-1.94
2022-12-13T17:31:35.393Z,-1.97
2022-12-13T17:34:05.346Z,-2.01
2022-12-13T17:36:33.180Z,-2.06
2022-12-13T17:39:00.746Z,-2.11
2022-12-13T17:41:28.343Z,-2.14
2022-12-13T17:44:00.286Z,-2.16
2022-12-13T17:46:27.981Z,-2.18
2022-12-13T17:48:56.097Z,-2.19
2022-12-13T17:51:25.035Z,-2.24
2022-12-13T17:53:52.734Z,-2.22
2022-12-13T17:56:20.429Z,-2.21
2022-12-13T17:58:48.079Z,-2.20
2022-12-13T18:01:17.737Z,-2.23
2022-12-13T18:03:45.876Z,-2.22
2022-12-13T18:06:13.528Z,-2.25
2022-12-13T18:08:44.330Z,-2.27
2022-12-13T18:11:32.281Z,-2.26
2022-12-13T18:14:00.618Z,-2.40
2022-12-13T18:16:35.917Z,-2.39
2022-12-13T18:19:06.520Z,-2.40
2022-12-13T18:21:35.311Z,-2.40
2022-12-13T18:24:05.180Z,-2.43
2022-12-13T18:26:32.772Z,-2.46
2022-12-13T18:29:00.478Z,-2.45
2022-12-13T18:31:28.423Z,-2.45
2022-12-13T18:33:56.815Z,-2.52
2022-12-13T18:36:26.349Z,-2.50
2022-12-13T18:38:54.260Z,-2.50
2022-12-13T18:41:24.597Z,-2.49
2022-12-13T18:43:59.788Z,-2.53
2022-12-13T18:46:29.108Z,-2.52
2022-12-13T18:48:57.766Z,-2.53
2022-12-13T18:51:26.024Z,-2.56
2022-12-13T18:53:54.667Z,-2.63
2022-12-13T18:56:24.459Z,-2.64
2022-12-13T18:58:53.404Z,-2.67
2022-12-13T19:01:22.787Z,-2.71
2022-12-13T19:03:50.893Z,-2.74
2022-12-13T19:06:20.984Z,-2.85
2022-12-13T19:08:49.614Z,-2.89
2022-12-13T19:11:17.288Z,-2.94
2022-12-13T19:13:46.421Z,-2.98
2022-12-13T19:16:16.661Z,-3.03
2022-12-13T19:18:44.571Z,-3.10
2022-12-13T19:21:15.763Z,-3.15
2022-12-13T19:23:43.405Z,-3.18
2022-12-13T19:26:13.937Z,-3.25
2022-12-13T19:28:43.124Z,-3.30
2022-12-13T19:31:13.865Z,-3.34
2022-12-13T19:33:42.235Z,-3.36
2022-12-13T19:36:10.923Z,-3.41
2022-12-13T19:38:38.994Z,-3.47
2022-12-13T19:41:10.553Z,-3.51
2022-12-13T19:43:38.604Z,-3.52
2022-12-13T19:46:06.768Z,-3.56
2022-12-13T19:48:37.631Z,-3.60
2022-12-13T19:51:07.341Z,-3.61
2022-12-13T19:53:35.519Z,-3.65
2022-12-13T19:56:03.556Z,-3.70
2022-12-13T19:58:31.168Z,-3.72
2022-12-13T20:01:03.216Z,-3.72
2022-12-13T20:03:33.144Z,-3.76
2022-12-13T20:06:03.401Z,-3.80
2022-12-13T20:08:31.039Z,-3.83
2022-12-13T20:10:59.961Z,-3.85
2022-12-13T20:13:28.536Z,-3.87
2022-12-13T20:15:56.631Z,-3.91
2022-12-13T20:18:24.641Z,-3.92
2022-12-13T20:21:11.228Z,-3.93
2022-12-13T20:23:48.589Z,-3.96
2022-12-13T20:26:18.877Z,-3.98
2022-12-13T20:28:46.621Z,-3.99
2022-12-13T20:31:16.480Z,-3.97
2022-12-13T20:33:44.141Z,-3.96
2022-12-13T20:36:24.340Z,-3.98
2022-12-13T20:38:55.836Z,-3.99
2022-12-13T20:41:24.831Z,-4.01
2022-12-13T20:43:54.013Z,-4.03
2022-12-13T20:46:22.540Z,-4.07
2022-12-13T20:48:50.947Z,-4.10
2022-12-13T20:51:22.770Z,-4.14
2022-12-13T20:53:51.466Z,-4.15
2022-12-13T20:56:22.887Z,-4.19
2022-12-13T20:58:51.961Z,-4.21
2022-12-13T21:01:21.507Z,-4.24
2022-12-13T21:03:49.430Z,-4.27
2022-12-13T21:06:17.053Z,-4.28
2022-12-13T21:08:54.411Z,-4.27
2022-12-13T21:11:28.695Z,-4.28
2022-12-13T21:14:03.639Z,-4.28
2022-12-13T21:16:36.861Z,-4.28
2022-12-13T21:19:05.374Z,-4.25
2022-12-13T21:21:33.292Z,-4.26
2022-12-13T21:24:00.932Z,-4.26
2022-12-13T21:26:34.981Z,-4.24
2022-12-13T21:29:05.594Z,-4.23
2022-12-13T21:31:33.352Z,-4.25
2022-12-13T21:34:02.862Z,-4.23
2022-12-13T21:36:31.917Z,-4.22
2022-12-13T21:39:01.267Z,-4.22
2022-12-13T21:41:30.539Z,-4.22
2022-12-13T21:44:00.186Z,-4.22
2022-12-13T21:46:54.758Z,-4.25
2022-12-13T21:49:17.462Z,-4.26
2022-12-13T21:51:48.114Z,-4.24
2022-12-13T21:54:16.470Z,-4.26
2022-12-13T21:57:02.086Z,-4.26
2022-12-13T21:59:29.698Z,-4.25
2022-12-13T22:02:15.485Z,-4.26
2022-12-13T22:04:44.569Z,-4.27
2022-12-13T22:07:14.586Z,-4.26
2022-12-13T22:09:42.511Z,-4.24
2022-12-13T22:12:18.814Z,-4.26
2022-12-13T22:14:46.661Z,-4.23
2022-12-13T22:17:15.018Z,-4.25
2022-12-13T22:19:42.704Z,-4.23
2022-12-13T22:22:11.025Z,-4.20
2022-12-13T22:24:38.780Z,-4.19
2022-12-13T22:27:06.364Z,-4.18
2022-12-13T22:29:35.319Z,-4.17
2022-12-13T22:32:03.064Z,-4.15
2022-12-13T22:34:31.593Z,-4.13
2022-12-13T22:36:59.357Z,-4.14
2022-12-13T22:39:27.115Z,-4.13
2022-12-13T22:41:54.694Z,-4.13
2022-12-13T22:44:22.397Z,-4.11
2022-12-13T22:46:51.372Z,-4.10
2022-12-13T22:49:19.215Z,-4.13
2022-12-13T22:51:46.909Z,-4.13
2022-12-13T22:54:14.855Z,-4.14
2022-12-13T22:56:42.519Z,-4.16
2022-12-13T22:59:10.112Z,-4.17
2022-12-13T23:01:40.508Z,-4.19
2022-12-13T23:04:12.198Z,-4.19
2022-12-13T23:06:41.014Z,-4.20
2022-12-13T23:09:12.345Z,-4.22
2022-12-13T23:11:57.925Z,-4.24
2022-12-13T23:14:27.923Z,-4.27
2022-12-13T23:16:55.742Z,-4.27
2022-12-13T23:19:48.768Z,-4.31
2022-12-13T23:22:12.441Z,-4.32
2022-12-13T23:24:40.025Z,-4.33
2022-12-13T23:27:07.768Z,-4.38
2022-12-13T23:29:35.434Z,-4.39
2022-12-13T23:32:03.022Z,-4.40
2022-12-13T23:34:32.292Z,-4.42
2022-12-13T23:36:59.939Z,-4.45
2022-12-13T23:39:27.891Z,-4.45
2022-12-13T23:41:55.492Z,-4.44
2022-12-13T23:44:23.273Z,-4.46
2022-12-13T23:46:50.880Z,-4.45
2022-12-13T23:49:20.309Z,-4.46
2022-12-13T23:51:49.237Z,-4.48
2022-12-13T23:54:19.456Z,-4.49
2022-12-13T23:56:47.624Z,-4.51
2022-12-13T23:59:15.454Z,-4.56
